createdAt,value
2023-06-27T00:01:48.921Z,18.34
2023-06-27T00:04:16.588Z,18.37
2023-06-27T00:06:43.131Z,18.37
2023-06-27T00:09:10.822Z,18.35
2023-06-27T00:11:40.895Z,18.35
2023-06-27T00:14:10.052Z,18.36
2023-06-27T00:16:37.750Z,18.39
2023-06-27T00:19:05.041Z,18.39
2023-06-27T00:21:33.107Z,18.47
2023-06-27T00:24:00.415Z,18.47
2023-06-27T00:26:28.428Z,18.47
2023-06-27T00:28:55.670Z,18.43
2023-06-27T00:31:22.727Z,18.38
2023-06-27T00:33:49.502Z,18.39
2023-06-27T00:36:17.737Z,18.37
2023-06-27T00:38:44.326Z,18.36
2023-06-27T00:41:10.837Z,18.34
2023-06-27T00:43:37.472Z,18.35
2023-06-27T00:46:07.592Z,18.31
2023-06-27T00:48:34.546Z,18.27
2023-06-27T00:51:01.870Z,18.25
2023-06-27T00:53:29.768Z,18.21
2023-06-27T00:55:57.098Z,18.20
2023-06-27T00:58:25.767Z,18.22
2023-06-27T01:00:52.733Z,18.25
2023-06-27T01:03:19.934Z,18.25
2023-06-27T01:05:47.032Z,18.29
2023-06-27T01:08:30.751Z,18.34
2023-06-27T01:11:20.928Z,18.32
2023-06-27T01:13:54.273Z,18.37
2023-06-27T01:16:23.684Z,18.35
2023-06-27T01:18:51.927Z,18.29
2023-06-27T01:21:21.211Z,18.28
2023-06-27T01:23:50.745Z,18.27
2023-06-27T01:26:17.673Z,18.20
2023-06-27T01:28:45.736Z,18.13
2023-06-27T01:31:21.010Z,18.08
2023-06-27T01:33:52.509Z,18.09
2023-06-27T01:36:26.804Z,18.08
2023-06-27T01:39:28.705Z,18.09
2023-06-27T01:42:01.680Z,18.04
2023-06-27T01:44:28.895Z,18.02
2023-06-27T01:46:55.604Z,18.02
2023-06-27T01:49:23.174Z,18.02
2023-06-27T01:51:51.067Z,18.05
2023-06-27T01:54:17.508Z,18.07
2023-06-27T01:56:44.002Z,18.07
2023-06-27T01:59:10.530Z,18.05
2023-06-27T02:01:37.241Z,18.03
2023-06-27T02:04:05.359Z,18.01
2023-06-27T02:06:31.914Z,18.06
2023-06-27T02:08:58.531Z,18.09
2023-06-27T02:11:24.981Z,18.04
2023-06-27T02:13:51.465Z,18.03
2023-06-27T02:16:18.078Z,18.02
2023-06-27T02:18:44.768Z,18.04
2023-06-27T02:21:12.048Z,17.98
2023-06-27T02:23:38.649Z,17.91
2023-06-27T02:26:06.983Z,17.89
2023-06-27T02:28:34.813Z,17.89
2023-06-27T02:31:04.143Z,17.87
2023-06-27T02:33:30.705Z,17.82
2023-06-27T02:36:01.629Z,17.76
2023-06-27T02:38:28.096Z,17.71
2023-06-27T02:40:55.333Z,17.66
2023-06-27T02:43:21.796Z,17.64
2023-06-27T02:45:48.294Z,17.66
2023-06-27T02:48:14.728Z,17.68
2023-06-27T02:50:41.235Z,17.68
2023-06-27T02:53:07.721Z,17.65
2023-06-27T02:55:34.462Z,17.61
2023-06-27T02:58:01.566Z,17.62
2023-06-27T03:00:29.064Z,17.59
2023-06-27T03:02:56.566Z,17.57
2023-06-27T03:05:23.259Z,17.52
2023-06-27T03:07:51.369Z,17.53
2023-06-27T03:10:18.700Z,17.51
2023-06-27T03:12:45.180Z,17.46
2023-06-27T03:15:11.719Z,17.49
2023-06-27T03:17:39.432Z,17.50
2023-06-27T03:20:09.648Z,17.51
2023-06-27T03:22:36.170Z,17.53
2023-06-27T03:25:02.886Z,17.55
2023-06-27T03:27:29.347Z,17.58
2023-06-27T03:29:57.671Z,17.61
2023-06-27T03:32:26.670Z,17.60
2023-06-27T03:34:53.361Z,17.62
2023-06-27T03:37:20.499Z,17.60
2023-06-27T03:39:47.168Z,17.59
2023-06-27T03:42:16.274Z,17.54
2023-06-27T03:44:42.779Z,17.50
2023-06-27T03:47:09.373Z,17.42
2023-06-27T03:49:37.588Z,17.39
2023-06-27T03:52:04.360Z,17.31
2023-06-27T03:54:30.845Z,17.26
2023-06-27T03:56:57.342Z,17.23
2023-06-27T03:59:24.183Z,17.26
2023-06-27T04:01:52.173Z,17.30
2023-06-27T04:04:18.803Z,17.33
2023-06-27T04:06:45.344Z,17.34
2023-06-27T04:09:11.895Z,17.34
2023-06-27T04:11:38.413Z,17.34
2023-06-27T04:14:05.000Z,17.36
2023-06-27T04:16:31.503Z,17.39
2023-06-27T04:18:58.545Z,17.36
2023-06-27T04:21:25.172Z,17.35
2023-06-27T04:23:55.308Z,17.30
2023-06-27T04:26:21.970Z,17.32
2023-06-27T04:28:48.585Z,17.28
2023-06-27T04:31:15.837Z,17.30
2023-06-27T04:33:42.775Z,17.32
2023-06-27T04:36:10.353Z,17.36
2023-06-27T04:38:41.476Z,17.41
2023-06-27T04:41:08.712Z,17.44
2023-06-27T04:43:37.552Z,17.46
2023-06-27T04:46:04.550Z,17.44
2023-06-27T04:48:31.215Z,17.50
2023-06-27T04:50:57.739Z,17.55
2023-06-27T04:53:25.030Z,17.61
2023-06-27T04:55:53.338Z,17.68
2023-06-27T04:58:20.514Z,17.77
2023-06-27T05:00:52.876Z,17.82
2023-06-27T05:03:22.111Z,17.85
2023-06-27T05:05:50.167Z,17.93
2023-06-27T05:08:17.651Z,17.95
2023-06-27T05:10:44.546Z,17.98
2023-06-27T05:13:13.354Z,18.00
2023-06-27T05:15:40.341Z,18.04
2023-06-27T05:18:06.992Z,18.07
2023-06-27T05:20:33.582Z,18.12
2023-06-27T05:23:00.177Z,18.20
2023-06-27T05:25:26.677Z,18.23
2023-06-27T05:27:53.127Z,18.28
2023-06-27T05:30:20.066Z,18.32
2023-06-27T05:32:46.620Z,18.34
2023-06-27T05:35:13.137Z,18.43
2023-06-27T05:37:39.632Z,18.40
2023-06-27T05:40:06.765Z,18.49
2023-06-27T05:42:33.880Z,18.55
2023-06-27T05:45:00.400Z,18.64
2023-06-27T05:47:26.899Z,18.74
2023-06-27T05:49:53.591Z,18.81
2023-06-27T05:52:21.727Z,18.91
2023-06-27T05:54:48.263Z,19.00
2023-06-27T05:57:14.715Z,19.07
2023-06-27T05:59:41.180Z,19.15
2023-06-27T06:02:07.727Z,19.18
2023-06-27T06:04:34.278Z,19.20
2023-06-27T06:07:00.816Z,19.20
2023-06-27T06:09:27.440Z,19.22
2023-06-27T06:11:53.893Z,19.21
2023-06-27T06:14:20.353Z,19.21
2023-06-27T06:16:46.797Z,19.20
2023-06-27T06:19:13.383Z,19.27
2023-06-27T06:21:40.105Z,19.30
2023-06-27T06:24:07.171Z,19.43
2023-06-27T06:26:33.631Z,19.53
2023-06-27T06:29:00.072Z,19.63
2023-06-27T06:31:26.571Z,19.77
2023-06-27T06:33:54.299Z,19.78
2023-06-27T06:36:20.757Z,19.82
2023-06-27T06:38:47.234Z,19.85
2023-06-27T06:41:14.813Z,19.88
2023-06-27T06:43:41.268Z,19.85
2023-06-27T06:46:08.148Z,19.88
2023-06-27T06:48:34.655Z,19.86
2023-06-27T06:51:01.258Z,19.90
2023-06-27T06:53:27.755Z,19.95
2023-06-27T06:55:54.247Z,19.94
2023-06-27T06:58:20.709Z,19.93
2023-06-27T07:00:47.152Z,19.93
2023-06-27T07:03:14.758Z,19.92
2023-06-27T07:05:44.256Z,19.98
2023-06-27T07:08:11.124Z,20.06
2023-06-27T07:10:38.058Z,20.11
2023-06-27T07:13:06.412Z,20.14
2023-06-27T07:15:33.808Z,20.14
2023-06-27T07:18:00.579Z,20.24
2023-06-27T07:20:27.176Z,20.32
2023-06-27T07:22:53.709Z,20.35
2023-06-27T07:25:20.424Z,20.40
2023-06-27T07:27:47.077Z,20.38
2023-06-27T07:30:14.022Z,20.41
2023-06-27T07:32:40.602Z,20.49
2023-06-27T07:35:07.557Z,20.55
2023-06-27T07:37:34.011Z,20.70
2023-06-27T07:40:00.731Z,20.81
2023-06-27T07:42:27.563Z,20.99
2023-06-27T07:44:54.482Z,21.05
2023-06-27T07:47:21.307Z,21.07
2023-06-27T07:49:47.828Z,21.03
2023-06-27T07:52:14.369Z,21.02
2023-06-27T07:54:40.932Z,21.09
2023-06-27T07:57:07.515Z,21.11
2023-06-27T07:59:34.160Z,21.13
2023-06-27T08:02:00.659Z,21.24
2023-06-27T08:04:27.452Z,21.41
2023-06-27T08:06:54.436Z,21.42
2023-06-27T08:09:23.933Z,21.46
2023-06-27T08:11:51.468Z,21.55
2023-06-27T08:14:18.478Z,21.51
2023-06-27T08:16:45.012Z,21.54
2023-06-27T08:19:11.530Z,21.72
2023-06-27T08:21:38.010Z,21.92
2023-06-27T08:24:04.829Z,21.90
2023-06-27T08:26:31.303Z,21.83
2023-06-27T08:28:57.783Z,21.76
2023-06-27T08:31:24.505Z,21.61
2023-06-27T08:33:51.173Z,21.41
2023-06-27T08:36:18.010Z,21.42
2023-06-27T08:38:44.547Z,21.53
2023-06-27T08:41:12.065Z,21.51
2023-06-27T08:43:40.164Z,21.58
2023-06-27T08:46:09.667Z,21.68
2023-06-27T08:48:40.785Z,21.75
2023-06-27T08:51:09.340Z,21.68
2023-06-27T08:53:37.793Z,21.70
2023-06-27T08:56:15.344Z,21.78
2023-06-27T08:58:51.702Z,21.98
2023-06-27T09:01:18.850Z,22.07
2023-06-27T09:03:45.574Z,22.14
2023-06-27T09:06:13.422Z,22.23
2023-06-27T09:08:40.366Z,22.52
2023-06-27T09:11:10.942Z,22.81
2023-06-27T09:13:38.659Z,22.86
2023-06-27T09:16:08.852Z,22.82
2023-06-27T09:18:37.314Z,22.79
2023-06-27T09:21:04.336Z,22.86
2023-06-27T09:23:31.992Z,22.87
2023-06-27T09:26:11.090Z,22.71
2023-06-27T09:28:52.894Z,22.47
2023-06-27T09:31:23.250Z,22.27
2023-06-27T09:33:52.576Z,22.41
2023-06-27T09:39:11.743Z,22.85
2023-06-27T09:41:46.365Z,22.99
2023-06-27T09:44:14.724Z,22.81
2023-06-27T09:46:43.164Z,22.62
2023-06-27T09:49:10.330Z,22.42
2023-06-27T09:51:37.761Z,22.36
2023-06-27T09:54:05.193Z,22.44
2023-06-27T09:56:33.268Z,22.59
2023-06-27T09:59:21.902Z,22.75
2023-06-27T10:01:52.251Z,22.69
2023-06-27T10:04:19.163Z,22.61
2023-06-27T10:06:45.976Z,22.61
2023-06-27T10:09:12.750Z,22.66
2023-06-27T10:11:40.032Z,22.59
2023-06-27T10:14:06.765Z,22.70
2023-06-27T10:16:33.477Z,22.74
2023-06-27T10:19:01.501Z,22.75
2023-06-27T10:21:30.429Z,22.73
2023-06-27T10:24:00.218Z,22.69
2023-06-27T10:26:27.932Z,22.78
2023-06-27T10:28:55.469Z,22.96
2023-06-27T10:31:50.663Z,23.19
2023-06-27T10:34:21.676Z,23.39
2023-06-27T10:37:02.268Z,23.46
2023-06-27T10:39:33.493Z,23.45
2023-06-27T10:42:04.881Z,23.49
2023-06-27T10:44:32.893Z,23.49
2023-06-27T10:47:17.439Z,23.48
2023-06-27T10:49:49.992Z,23.53
2023-06-27T10:52:26.118Z,23.63
2023-06-27T10:55:19.354Z,23.80
2023-06-27T10:57:49.401Z,24.01
2023-06-27T11:00:25.019Z,24.26
2023-06-27T11:02:55.293Z,24.18
2023-06-27T11:05:40.543Z,24.14
2023-06-27T11:08:10.665Z,24.20
2023-06-27T11:10:38.143Z,24.06
2023-06-27T11:13:17.097Z,24.01
2023-06-27T11:15:45.347Z,24.08
2023-06-27T11:18:16.140Z,23.94
2023-06-27T11:20:44.173Z,23.79
2023-06-27T11:23:12.878Z,23.81
2023-06-27T11:25:43.614Z,23.69
2023-06-27T11:28:12.003Z,23.54
2023-06-27T11:30:39.677Z,23.42
2023-06-27T11:33:08.244Z,23.38
2023-06-27T11:35:36.561Z,23.47
2023-06-27T11:38:07.382Z,23.68
2023-06-27T11:40:33.976Z,23.68
2023-06-27T11:43:04.544Z,23.77
2023-06-27T11:45:32.185Z,23.87
2023-06-27T11:48:02.415Z,23.97
2023-06-27T11:50:30.152Z,24.00
2023-06-27T11:52:58.371Z,24.03
2023-06-27T11:55:25.685Z,23.96
2023-06-27T11:57:57.233Z,24.00
2023-06-27T12:00:29.693Z,24.07
2023-06-27T12:02:58.214Z,24.19
2023-06-27T12:05:26.016Z,24.21
2023-06-27T12:08:05.854Z,24.21
2023-06-27T12:10:33.892Z,24.26
2023-06-27T12:13:06.248Z,24.42
2023-06-27T12:15:44.440Z,24.64
2023-06-27T12:18:12.392Z,24.80
2023-06-27T12:20:43.445Z,24.84
2023-06-27T12:23:10.949Z,24.86
2023-06-27T12:25:40.261Z,25.03
2023-06-27T12:28:07.825Z,25.18
2023-06-27T12:30:35.089Z,25.13
2023-06-27T12:33:02.238Z,24.97
2023-06-27T12:35:28.925Z,24.76
2023-06-27T12:37:55.849Z,24.65
2023-06-27T12:40:24.063Z,24.62
2023-06-27T12:42:51.652Z,24.56
2023-06-27T12:45:21.911Z,24.48
2023-06-27T12:47:48.940Z,24.43
2023-06-27T12:50:17.985Z,24.43
2023-06-27T12:52:48.733Z,24.35
2023-06-27T12:55:16.622Z,24.37
2023-06-27T12:57:43.964Z,24.32
2023-06-27T13:00:11.240Z,24.37
2023-06-27T13:02:39.058Z,24.68
2023-06-27T13:05:06.953Z,24.89
2023-06-27T13:07:34.676Z,25.14
2023-06-27T13:10:04.565Z,25.24
2023-06-27T13:12:31.403Z,25.16
2023-06-27T13:14:57.849Z,25.11
2023-06-27T13:17:24.484Z,25.16
2023-06-27T13:19:51.651Z,25.50
2023-06-27T13:22:18.219Z,25.67
2023-06-27T13:24:44.985Z,26.00
2023-06-27T13:27:11.479Z,26.23
2023-06-27T13:29:38.019Z,25.99
2023-06-27T13:32:05.072Z,25.85
2023-06-27T13:34:31.579Z,25.92
2023-06-27T13:36:58.095Z,25.78
2023-06-27T13:39:24.603Z,25.49
2023-06-27T13:41:51.134Z,25.11
2023-06-27T13:44:17.646Z,24.80
2023-06-27T13:46:44.341Z,24.67
2023-06-27T13:49:11.012Z,24.85
2023-06-27T13:51:37.556Z,25.27
2023-06-27T13:54:04.485Z,25.41
2023-06-27T13:56:31.045Z,25.62
2023-06-27T13:58:59.294Z,25.89
2023-06-27T14:01:26.860Z,26.24
2023-06-27T14:03:53.646Z,26.49
2023-06-27T14:06:20.336Z,26.71
2023-06-27T14:08:46.801Z,26.97
2023-06-27T14:11:15.329Z,27.12
2023-06-27T14:13:46.387Z,27.13
2023-06-27T14:16:13.480Z,27.14
2023-06-27T14:18:40.025Z,27.13
2023-06-27T14:21:09.656Z,27.00
2023-06-27T14:23:40.854Z,26.99
2023-06-27T14:26:10.046Z,26.76
2023-06-27T14:28:36.529Z,26.61
2023-06-27T14:31:04.303Z,26.52
2023-06-27T14:33:30.920Z,26.70
2023-06-27T14:35:57.566Z,26.75
2023-06-27T14:38:24.033Z,26.74
2023-06-27T14:40:50.895Z,26.84
2023-06-27T14:43:19.330Z,26.85
2023-06-27T14:45:45.963Z,27.12
2023-06-27T14:48:12.481Z,27.31
2023-06-27T14:50:39.081Z,27.24
2023-06-27T14:53:07.198Z,27.05
2023-06-27T14:55:33.817Z,26.98
2023-06-27T14:58:01.365Z,26.60
2023-06-27T15:00:28.154Z,26.16
2023-06-27T15:02:54.713Z,25.88
2023-06-27T15:05:21.454Z,25.66
2023-06-27T15:07:48.047Z,25.41
2023-06-27T15:10:14.531Z,25.19
2023-06-27T15:12:41.250Z,25.21
2023-06-27T15:15:08.446Z,25.57
2023-06-27T15:17:35.145Z,25.80
2023-06-27T15:20:02.704Z,26.01
2023-06-27T15:22:29.556Z,25.95
2023-06-27T15:24:56.116Z,25.84
2023-06-27T15:27:23.063Z,25.87
2023-06-27T15:29:49.762Z,26.02
2023-06-27T15:32:16.418Z,25.77
2023-06-27T15:34:44.674Z,25.37
2023-06-27T15:37:11.595Z,24.92
2023-06-27T15:39:38.974Z,24.53
2023-06-27T15:42:07.102Z,24.31
2023-06-27T15:44:35.935Z,24.15
2023-06-27T15:47:02.772Z,24.04
2023-06-27T15:49:29.270Z,24.00
2023-06-27T15:51:55.729Z,24.06
2023-06-27T15:54:22.218Z,24.18
2023-06-27T15:56:48.732Z,24.27
2023-06-27T15:59:15.950Z,24.27
2023-06-27T16:01:44.279Z,24.24
2023-06-27T16:04:11.030Z,24.22
2023-06-27T16:06:37.633Z,24.24
2023-06-27T16:09:04.954Z,24.07
2023-06-27T16:11:32.813Z,23.79
2023-06-27T16:13:59.701Z,23.44
2023-06-27T16:16:26.411Z,23.24
2023-06-27T16:18:52.895Z,23.15
2023-06-27T16:21:19.617Z,23.12
2023-06-27T16:23:46.552Z,23.08
2023-06-27T16:26:13.319Z,23.13
2023-06-27T16:28:40.088Z,23.17
2023-06-27T16:31:06.800Z,23.22
2023-06-27T16:33:33.395Z,23.22
2023-06-27T16:35:59.931Z,23.24
2023-06-27T16:38:26.430Z,23.40
2023-06-27T16:40:52.958Z,23.54
2023-06-27T16:43:19.393Z,23.54
2023-06-27T16:45:45.854Z,23.46
2023-06-27T16:48:12.401Z,23.37
2023-06-27T16:50:39.161Z,23.24
2023-06-27T16:53:08.777Z,23.10
2023-06-27T16:55:35.255Z,22.98
2023-06-27T16:58:01.708Z,22.92
2023-06-27T17:00:28.179Z,22.96
2023-06-27T17:02:54.845Z,22.97
2023-06-27T17:05:21.390Z,23.02
2023-06-27T17:07:48.952Z,23.03
2023-06-27T17:10:15.577Z,23.16
2023-06-27T17:12:42.070Z,23.17
2023-06-27T17:15:09.087Z,23.15
2023-06-27T17:17:35.612Z,23.13
2023-06-27T17:20:02.126Z,23.10
2023-06-27T17:22:29.352Z,23.08
2023-06-27T17:24:55.847Z,23.05
2023-06-27T17:27:22.403Z,23.12
2023-06-27T17:29:48.891Z,23.31
2023-06-27T17:32:16.614Z,23.47
2023-06-27T17:34:43.048Z,23.61
2023-06-27T17:37:09.560Z,23.73
2023-06-27T17:39:36.038Z,23.80
2023-06-27T17:42:02.506Z,23.86
2023-06-27T17:44:29.036Z,23.80
2023-06-27T17:46:55.522Z,23.63
2023-06-27T17:49:24.960Z,23.36
2023-06-27T17:51:52.738Z,23.19
2023-06-27T17:54:19.244Z,23.06
2023-06-27T17:56:47.700Z,22.96
2023-06-27T17:59:14.393Z,22.92
2023-06-27T18:01:40.976Z,22.92
2023-06-27T18:04:07.583Z,22.86
2023-06-27T18:06:34.076Z,22.75
2023-06-27T18:09:00.523Z,22.63
2023-06-27T18:11:29.856Z,22.51
2023-06-27T18:13:56.557Z,22.40
2023-06-27T18:16:24.283Z,22.33
2023-06-27T18:18:50.804Z,22.25
2023-06-27T18:21:17.251Z,22.17
2023-06-27T18:23:43.771Z,22.06
2023-06-27T18:26:10.234Z,21.95
2023-06-27T18:28:36.725Z,21.84
2023-06-27T18:31:03.926Z,21.77
2023-06-27T18:33:30.741Z,21.72
2023-06-27T18:35:59.134Z,21.68
2023-06-27T18:38:28.766Z,21.66
2023-06-27T18:40:55.358Z,21.65
2023-06-27T18:43:21.828Z,21.65
2023-06-27T18:45:48.309Z,21.61
2023-06-27T18:48:15.663Z,21.56
2023-06-27T18:50:42.419Z,21.50
2023-06-27T18:53:09.096Z,21.47
2023-06-27T18:55:35.557Z,21.43
2023-06-27T18:58:02.212Z,21.35
2023-06-27T19:00:29.356Z,21.29
2023-06-27T19:02:55.866Z,21.21
2023-06-27T19:05:22.402Z,21.13
2023-06-27T19:07:48.953Z,21.06
2023-06-27T19:10:16.418Z,20.96
2023-06-27T19:12:42.933Z,20.90
2023-06-27T19:15:09.890Z,20.85
2023-06-27T19:17:36.494Z,20.78
2023-06-27T19:20:04.238Z,20.69
2023-06-27T19:22:31.182Z,20.62
2023-06-27T19:24:57.745Z,20.56
2023-06-27T19:27:24.203Z,20.48
2023-06-27T19:29:50.734Z,20.43
2023-06-27T19:32:17.265Z,20.34
2023-06-27T19:34:43.749Z,20.34
2023-06-27T19:37:10.307Z,20.29
2023-06-27T19:39:37.149Z,20.29
2023-06-27T19:42:03.892Z,20.26
2023-06-27T19:44:30.344Z,20.24
2023-06-27T19:46:56.799Z,20.19
2023-06-27T19:49:23.316Z,20.18
2023-06-27T19:51:49.820Z,20.15
2023-06-27T19:54:16.310Z,20.13
2023-06-27T19:56:42.942Z,20.13
2023-06-27T19:59:09.502Z,20.08
2023-06-27T20:01:36.107Z,20.05
2023-06-27T20:04:03.732Z,20.03
2023-06-27T20:06:30.292Z,20.02
2023-06-27T20:08:56.737Z,19.99
2023-06-27T20:11:23.536Z,19.95
2023-06-27T20:13:50.077Z,19.93
2023-06-27T20:16:16.565Z,19.88
2023-06-27T20:18:43.124Z,19.84
2023-06-27T20:21:09.660Z,19.77
2023-06-27T20:23:36.086Z,19.74
2023-06-27T20:26:03.769Z,19.73
2023-06-27T20:28:30.293Z,19.69
2023-06-27T20:30:57.996Z,19.66
2023-06-27T20:33:24.457Z,19.62
2023-06-27T20:35:51.032Z,19.59
2023-06-27T20:38:18.376Z,19.57
2023-06-27T20:40:45.055Z,19.60
2023-06-27T20:43:11.672Z,19.62
2023-06-27T20:45:38.253Z,19.62
2023-06-27T20:48:05.079Z,19.63
2023-06-27T20:50:31.537Z,19.60
2023-06-27T20:52:58.172Z,19.64
2023-06-27T20:55:24.801Z,19.61
2023-06-27T20:57:51.243Z,19.61
2023-06-27T21:00:18.090Z,19.61
2023-06-27T21:02:44.627Z,19.61
2023-06-27T21:05:11.179Z,19.60
2023-06-27T21:07:37.821Z,19.58
2023-06-27T21:10:04.611Z,19.57
2023-06-27T21:12:31.117Z,19.54
2023-06-27T21:14:58.156Z,19.53
2023-06-27T21:17:27.791Z,19.51
2023-06-27T21:19:54.351Z,19.47
2023-06-27T21:22:20.968Z,19.41
2023-06-27T21:24:47.468Z,19.41
2023-06-27T21:27:13.966Z,19.38
2023-06-27T21:29:40.430Z,19.36
2023-06-27T21:32:07.461Z,19.33
2023-06-27T21:34:33.955Z,19.30
2023-06-27T21:37:00.439Z,19.29
2023-06-27T21:39:27.132Z,19.31
2023-06-27T21:41:53.619Z,19.34
2023-06-27T21:44:20.083Z,19.32
2023-06-27T21:46:46.523Z,19.34
2023-06-27T21:49:12.978Z,19.35
2023-06-27T21:51:39.440Z,19.35
2023-06-27T21:54:05.906Z,19.33
2023-06-27T21:56:32.346Z,19.31
2023-06-27T21:58:58.785Z,19.30
2023-06-27T22:01:26.030Z,19.27
2023-06-27T22:03:52.697Z,19.23
2023-06-27T22:06:22.770Z,19.23
2023-06-27T22:08:57.197Z,19.25
2023-06-27T22:11:23.638Z,19.23
2023-06-27T22:13:50.075Z,19.21
2023-06-27T22:16:17.265Z,19.20
2023-06-27T22:18:45.409Z,19.18
2023-06-27T22:21:11.975Z,19.15
2023-06-27T22:23:38.446Z,19.12
2023-06-27T22:26:04.882Z,19.13
2023-06-27T22:28:31.297Z,19.14
2023-06-27T22:30:57.817Z,19.12
2023-06-27T22:33:24.278Z,19.09
2023-06-27T22:35:50.694Z,19.06
2023-06-27T22:38:18.592Z,19.03
2023-06-27T22:40:45.070Z,19.02
2023-06-27T22:43:11.528Z,18.99
2023-06-27T22:45:38.822Z,18.97
2023-06-27T22:48:05.781Z,18.95
2023-06-27T22:50:32.269Z,18.92
2023-06-27T22:52:59.289Z,18.90
2023-06-27T22:55:25.816Z,18.90
2023-06-27T22:57:52.274Z,18.90
2023-06-27T23:00:19.157Z,18.90
2023-06-27T23:02:45.721Z,18.88
2023-06-27T23:05:12.270Z,18.86
2023-06-27T23:07:39.177Z,18.82
2023-06-27T23:10:06.585Z,18.78
2023-06-27T23:12:33.318Z,18.73
2023-06-27T23:15:00.604Z,18.71
2023-06-27T23:17:27.094Z,18.71
2023-06-27T23:19:53.564Z,18.66
2023-06-27T23:22:20.869Z,18.60
2023-06-27T23:24:47.564Z,18.59
2023-06-27T23:27:14.388Z,18.53
2023-06-27T23:29:41.853Z,18.45
2023-06-27T23:32:09.404Z,18.41
2023-06-27T23:34:35.903Z,18.34
2023-06-27T23:37:02.565Z,18.28
2023-06-27T23:39:29.124Z,18.27
2023-06-27T23:41:55.996Z,18.25
2023-06-27T23:44:22.570Z,18.26
2023-06-27T23:46:49.106Z,18.25
2023-06-27T23:49:15.693Z,18.24
2023-06-27T23:51:42.198Z,18.26
2023-06-27T23:54:08.644Z,18.30
2023-06-27T23:56:35.138Z,18.32
2023-06-27T23:59:01.820Z,18.30
